ADDS METAR Data INFO
IDs: Format: Raw Decoded Include TAF

Data at: 0114 UTC 21 Oct 2017

KLAN 210053Z 18007KT 10SM CLR 17/10 A3013 RMK AO2 SLP202 T01720100
KLAN 202353Z 17005KT 10SM CLR 19/10 A3013 RMK AO2 SLP203 T01890100 10244 20183 56002
KLAN 202253Z 18006KT 10SM CLR 21/11 A3013 RMK AO2 SLP203 T02060106
KLAN 202153Z 19007KT 10SM CLR 22/10 A3013 RMK AO2 SLP204 T02220100
KLAN 202053Z 19009KT 10SM CLR 24/10 A3013 RMK AO2 SLP204 T02390100 56016
KLAN 201953Z 20013KT 10SM CLR 24/09 A3015 RMK AO2 SLP208 T02440094
KLAN 201853Z 23012G19KT 10SM CLR 24/09 A3017 RMK AO2 SLP215 T02390089
KLAN 201753Z 21012G18KT 10SM CLR 23/09 A3018 RMK AO2 SLP220 T02330089 10233 20067 58019
KLAN 201653Z 21010KT 10SM CLR 23/09 A3021 RMK AO2 SLP231 T02280089
KLAN 201553Z 20008KT 10SM CLR 20/08 A3023 RMK AO2 SLP237 T02000083
KLAN 201453Z 19007KT 10SM CLR 17/07 A3024 RMK AO2 SLP241 T01720067 50003
KLAN 201353Z 19007KT 10SM CLR 14/04 A3025 RMK AO2 SLP243 T01440044
KLAN 201253Z 17004KT 10SM CLR 10/02 A3024 RMK AO2 SLP244 T01000017
KLAN 201153Z 14003KT 10SM CLR 07/01 A3023 RMK AO2 SLP240 T00670006 10072 20039 51008
KLAN 201053Z 00000KT 10SM CLR 07/01 A3023 RMK AO2 SLP238 T00720006
KLAN 200953Z 14003KT 10SM CLR 05/01 A3022 RMK AO2 SLP234 T00500011
KLAN 200853Z 00000KT 10SM CLR 06/01 A3021 RMK AO2 SLP231 T00560011 56004
KLAN 200753Z 00000KT 10SM CLR 06/01 A3021 RMK AO2 SLP231 T00560011
KLAN 200653Z 00000KT 10SM CLR 07/02 A3022 RMK AO2 SLP233 T00670017
KLAN 200553Z 00000KT 10SM CLR 07/02 A3022 RMK AO2 SLP234 T00670017 10139 20067 53009
KLAN 200453Z 00000KT 10SM CLR 08/02 A3021 RMK AO2 SLP230 T00830017 402000078
KLAN 200353Z 00000KT 10SM CLR 09/01 A3020 RMK AO2 SLP227 T00890006
KLAN 200253Z 25004KT 10SM CLR 10/00 A3019 RMK AO2 SLP225 T01000000 51008
KLAN 200153Z 26005KT 10SM CLR 12/M01 A3018 RMK AO2 SLP222 T01171011
KLAN 200053Z 25004KT 10SM CLR 12/M01 A3018 RMK AO2 SLP220 T01221011
KLAN 192353Z 25006KT 10SM CLR 14/M02 A3017 RMK AO2 SLP216 T01391017 10200 20139 51010
KLAN 192253Z 27006KT 10SM CLR 16/M01 A3016 RMK AO2 SLP213 T01561011
KLAN 192153Z 27009KT 10SM CLR 18/M02 A3015 RMK AO2 SLP209 T01781022
KLAN 192053Z 29012KT 10SM CLR 19/M04 A3013 RMK AO2 SLP203 T01891039 53003
KLAN 191953Z 26014KT 10SM CLR 19/M04 A3013 RMK AO2 SLP201 T01941044
KLAN 191853Z 27014G20KT 10SM CLR 19/M06 A3012 RMK AO2 SLP200 T01941061
KLAN 191753Z 28010KT 10SM CLR 19/M04 A3013 RMK AO2 SLP200 T01891044 10189 20117 50001
KLAN 191653Z 25011KT 10SM CLR 18/03 A3014 RMK AO2 SLP205 T01830028
KLAN 191553Z 26011KT 10SM CLR 17/06 A3014 RMK AO2 SLP205 T01720056
KLAN 191453Z 27009KT 10SM CLR 16/07 A3012 RMK AO2 SLP200 T01560072 51025
KLAN 191353Z 25010KT 10SM CLR 14/08 A3011 RMK AO2 SLP194 T01390083